createdAt,value
2024-02-18T00:03:25.181Z,0.52
2024-02-18T00:07:07.622Z,0.73
2024-02-18T00:10:49.530Z,0.82
2024-02-18T00:14:31.336Z,0.55
2024-02-18T00:18:13.119Z,1.05
2024-02-18T00:21:55.047Z,0.60
2024-02-18T00:25:36.847Z,0.50
2024-02-18T00:29:18.864Z,0.70
2024-02-18T00:33:00.756Z,0.77
2024-02-18T00:36:42.593Z,0.50
2024-02-18T00:40:24.417Z,0.68
2024-02-18T00:44:06.272Z,0.47
2024-02-18T00:47:48.140Z,1.67
2024-02-18T00:51:30.483Z,0.50
2024-02-18T00:55:12.461Z,0.57
2024-02-18T00:58:54.408Z,2.47
2024-02-18T01:02:36.203Z,2.00
2024-02-18T01:06:18.028Z,1.05
2024-02-18T01:09:59.896Z,4.10
2024-02-18T01:13:41.801Z,1.20
2024-02-18T01:17:23.569Z,1.67
2024-02-18T01:21:05.554Z,1.50
2024-02-18T01:24:47.951Z,3.78
2024-02-18T01:28:29.816Z,1.58
2024-02-18T01:32:11.597Z,0.98
2024-02-18T01:35:53.451Z,1.67
2024-02-18T01:39:35.348Z,3.28
2024-02-18T01:43:19.581Z,1.60
2024-02-18T01:47:01.784Z,2.22
2024-02-18T01:50:45.847Z,1.67
2024-02-18T01:54:34.502Z,6.45
2024-02-18T01:58:17.454Z,1.75
2024-02-18T02:01:59.859Z,3.13
2024-02-18T02:05:42.972Z,2.63
2024-02-18T02:09:25.441Z,3.72
2024-02-18T02:13:07.480Z,8.88
2024-02-18T02:16:49.574Z,5.03
2024-02-18T02:20:31.435Z,7.13
2024-02-18T02:24:13.292Z,3.55
2024-02-18T02:28:19.429Z,2.00
2024-02-18T02:32:01.422Z,2.25
2024-02-18T02:35:43.355Z,1.95
2024-02-18T02:39:25.135Z,2.17
2024-02-18T02:43:07.235Z,2.65
2024-02-18T02:46:49.870Z,2.10
2024-02-18T02:50:33.749Z,1.88
2024-02-18T02:54:16.831Z,0.95
2024-02-18T02:57:58.675Z,2.35
2024-02-18T03:01:40.545Z,1.08
2024-02-18T03:05:22.522Z,2.50
2024-02-18T03:09:04.496Z,1.08
2024-02-18T03:12:46.814Z,0.88
2024-02-18T03:16:28.677Z,3.33
2024-02-18T03:20:13.854Z,2.70
2024-02-18T03:23:55.696Z,1.58
2024-02-18T03:27:37.597Z,2.22
2024-02-18T03:31:20.153Z,1.58
2024-02-18T03:35:04.323Z,1.55
2024-02-18T03:38:46.227Z,0.52
2024-02-18T03:42:28.539Z,7.13
2024-02-18T03:46:10.420Z,0.10
2024-02-18T03:49:52.430Z,3.03
2024-02-18T03:53:34.352Z,5.72
2024-02-18T03:57:16.152Z,2.47
2024-02-18T04:00:58.057Z,0.30
2024-02-18T04:04:39.974Z,0.20
2024-02-18T04:08:21.841Z,2.75
2024-02-18T04:12:04.519Z,0.10
2024-02-18T04:15:46.426Z,0.57
2024-02-18T04:19:28.340Z,1.58
2024-02-18T04:23:10.193Z,0.90
2024-02-18T04:26:51.975Z,0.35
2024-02-18T04:30:33.939Z,0.52
2024-02-18T04:34:15.916Z,0.40
2024-02-18T04:37:57.910Z,3.53
2024-02-18T04:41:39.698Z,3.30
2024-02-18T04:45:21.544Z,6.45
2024-02-18T04:49:05.439Z,2.20
2024-02-18T04:52:47.730Z,0.50
2024-02-18T04:56:29.635Z,5.47
2024-02-18T05:00:12.167Z,11.93
2024-02-18T05:03:54.531Z,13.25
2024-02-18T05:07:36.391Z,2.75
2024-02-18T05:11:18.269Z,0.70
2024-02-18T05:15:00.166Z,0.88
2024-02-18T05:18:46.155Z,0.50
2024-02-18T05:22:28.050Z,1.60
2024-02-18T05:26:10.455Z,1.35
2024-02-18T05:29:52.238Z,0.30
2024-02-18T05:33:34.168Z,0.70
2024-02-18T05:37:16.251Z,2.42
2024-02-18T05:40:58.138Z,0.35
2024-02-18T05:44:39.949Z,0.40
2024-02-18T05:48:21.880Z,0.77
2024-02-18T05:52:04.038Z,2.30
2024-02-18T05:55:45.907Z,0.57
2024-02-18T05:59:27.703Z,0.43
2024-02-18T06:03:09.850Z,3.00
2024-02-18T06:06:51.674Z,0.10
2024-02-18T06:10:34.385Z,0.65
2024-02-18T06:14:16.555Z,0.38
2024-02-18T06:17:59.279Z,0.63
2024-02-18T06:21:41.224Z,0.85
2024-02-18T06:25:23.242Z,1.98
2024-02-18T06:29:05.041Z,1.25
2024-02-18T06:32:46.959Z,1.00
2024-02-18T06:36:29.768Z,0.85
2024-02-18T06:40:12.297Z,0.52
2024-02-18T06:43:54.117Z,0.55
2024-02-18T06:47:36.350Z,0.80
2024-02-18T06:51:18.908Z,1.10
2024-02-18T06:55:02.608Z,0.50
2024-02-18T06:58:44.542Z,0.55
2024-02-18T07:02:26.581Z,0.40
2024-02-18T07:06:08.473Z,0.40
2024-02-18T07:09:50.387Z,0.40
2024-02-18T07:13:32.246Z,0.20
2024-02-18T07:17:20.793Z,0.28
2024-02-18T07:21:03.665Z,0.28
2024-02-18T07:24:49.024Z,0.10
2024-02-18T07:28:30.817Z,0.22
2024-02-18T07:32:12.650Z,0.00
2024-02-18T07:35:54.440Z,0.13
2024-02-18T07:39:36.351Z,0.10
2024-02-18T07:43:18.164Z,0.20
2024-02-18T07:47:00.086Z,0.30
2024-02-18T07:50:42.354Z,0.32
2024-02-18T07:54:24.187Z,0.30
2024-02-18T07:58:06.160Z,0.30
2024-02-18T08:01:48.128Z,1.00
2024-02-18T08:05:29.940Z,0.50
2024-02-18T08:09:11.718Z,1.13
2024-02-18T08:12:54.155Z,0.30
2024-02-18T08:16:36.120Z,0.40
2024-02-18T08:20:17.953Z,1.30
2024-02-18T08:23:59.789Z,0.60
2024-02-18T08:27:41.666Z,0.80
2024-02-18T08:31:23.601Z,1.55
2024-02-18T08:35:08.892Z,1.17
2024-02-18T08:38:51.959Z,2.15
2024-02-18T08:42:33.853Z,1.00
2024-02-18T08:46:15.809Z,1.13
2024-02-18T08:49:57.724Z,1.73
2024-02-18T08:53:42.044Z,2.00
2024-02-18T08:57:23.959Z,3.70
2024-02-18T09:01:06.614Z,1.45
2024-02-18T09:04:48.804Z,1.60
2024-02-18T09:08:30.954Z,2.90
2024-02-18T09:12:12.784Z,2.78
2024-02-18T09:15:54.871Z,3.90
2024-02-18T09:19:36.881Z,4.38
2024-02-18T09:23:18.825Z,5.40
2024-02-18T09:27:00.662Z,3.75
2024-02-18T09:30:42.604Z,5.75
2024-02-18T09:34:24.583Z,5.55
2024-02-18T09:38:10.135Z,5.03
2024-02-18T09:41:52.605Z,3.80
2024-02-18T09:45:36.684Z,4.00
2024-02-18T09:49:19.592Z,4.15
2024-02-18T09:53:03.413Z,4.35
2024-02-18T09:56:45.360Z,3.67
2024-02-18T10:00:27.546Z,3.95
2024-02-18T10:04:09.969Z,4.50
2024-02-18T10:08:04.701Z,3.90
2024-02-18T10:11:46.745Z,2.63
2024-02-18T10:15:28.648Z,2.58
2024-02-18T10:19:10.738Z,2.35
2024-02-18T10:22:53.100Z,1.75
2024-02-18T10:26:35.882Z,1.73
2024-02-18T10:30:18.544Z,2.20
2024-02-18T10:34:00.466Z,5.03
2024-02-18T10:37:43.993Z,2.53
2024-02-18T10:41:37.301Z,2.88
2024-02-18T10:45:22.416Z,2.65
2024-02-18T10:49:24.083Z,3.28
2024-02-18T10:53:26.493Z,2.97
2024-02-18T10:57:09.502Z,2.20
2024-02-18T11:00:55.548Z,2.80
2024-02-18T11:04:39.876Z,3.85
2024-02-18T11:08:22.141Z,6.15
2024-02-18T11:12:05.595Z,4.70
2024-02-18T11:15:48.030Z,4.85
2024-02-18T11:19:32.984Z,5.32
2024-02-18T11:23:15.018Z,4.03
2024-02-18T11:26:56.979Z,3.67
2024-02-18T11:30:38.914Z,4.13
2024-02-18T11:34:21.071Z,3.08
2024-02-18T11:38:02.992Z,3.28
2024-02-18T11:41:44.800Z,2.17
2024-02-18T11:45:27.159Z,1.55
2024-02-18T11:49:09.289Z,2.47
2024-02-18T11:52:52.429Z,1.70
2024-02-18T11:56:34.255Z,3.92
2024-02-18T12:00:20.415Z,1.95
2024-02-18T12:04:02.484Z,2.17
2024-02-18T12:07:47.268Z,1.50
2024-02-18T12:11:29.143Z,2.70
2024-02-18T12:15:18.226Z,1.75
2024-02-18T12:19:00.334Z,3.10
2024-02-18T12:22:45.802Z,1.88
2024-02-18T12:26:27.772Z,1.95
2024-02-18T12:30:10.485Z,3.88
2024-02-18T12:33:52.443Z,2.33
2024-02-18T12:37:36.301Z,1.85
2024-02-18T12:41:18.803Z,2.15
2024-02-18T12:45:38.049Z,1.30
2024-02-18T12:49:06.369Z,2.10
2024-02-18T12:52:48.529Z,1.63
2024-02-18T12:56:31.617Z,2.47
2024-02-18T13:00:14.016Z,3.10
2024-02-18T13:03:57.009Z,2.72
2024-02-18T13:07:40.789Z,2.92
2024-02-18T13:11:24.392Z,2.72
2024-02-18T13:15:06.910Z,2.60
2024-02-18T13:18:49.000Z,2.67
2024-02-18T13:22:30.945Z,2.08
2024-02-18T13:26:13.373Z,3.67
2024-02-18T13:29:55.185Z,4.40
2024-02-18T13:33:37.194Z,4.38
2024-02-18T13:37:19.120Z,2.50
2024-02-18T13:41:00.989Z,3.20
2024-02-18T13:44:42.890Z,3.45
2024-02-18T13:48:24.996Z,7.00
2024-02-18T13:52:07.620Z,3.28
2024-02-18T13:55:49.577Z,2.83
2024-02-18T13:59:31.435Z,6.03
2024-02-18T14:03:13.412Z,2.22
2024-02-18T14:06:55.347Z,5.03
2024-02-18T14:10:37.151Z,3.10
2024-02-18T14:14:18.960Z,3.20
2024-02-18T14:18:00.908Z,3.58
2024-02-18T14:21:44.953Z,1.35
2024-02-18T14:25:26.952Z,4.82
2024-02-18T14:29:08.776Z,1.88
2024-02-18T14:32:50.707Z,3.75
2024-02-18T14:36:32.866Z,3.33
2024-02-18T14:40:15.395Z,5.00
2024-02-18T14:43:57.512Z,2.78
2024-02-18T14:47:39.671Z,2.55
2024-02-18T14:51:21.960Z,4.35
2024-02-18T14:55:04.156Z,2.22
2024-02-18T14:58:46.025Z,1.58
2024-02-18T15:02:28.941Z,1.77
2024-02-18T15:06:10.993Z,2.88
2024-02-18T15:09:53.246Z,4.72
2024-02-18T15:13:35.292Z,4.40
2024-02-18T15:17:17.074Z,1.92
2024-02-18T15:20:58.863Z,3.55
2024-02-18T15:24:40.666Z,3.78
2024-02-18T15:28:22.629Z,4.28
2024-02-18T15:32:04.660Z,6.45
2024-02-18T15:35:49.657Z,4.35
2024-02-18T15:39:34.921Z,5.78
2024-02-18T15:43:16.799Z,4.68
2024-02-18T15:47:03.739Z,5.93
2024-02-18T15:50:46.148Z,6.50
2024-02-18T15:54:28.062Z,6.22
2024-02-18T15:58:09.989Z,6.75
2024-02-18T16:01:53.931Z,6.80
2024-02-18T16:05:35.874Z,6.30
2024-02-18T16:09:17.722Z,9.75
2024-02-18T16:12:59.610Z,7.57
2024-02-18T16:16:41.487Z,8.15
2024-02-18T16:20:23.267Z,6.63
2024-02-18T16:24:05.327Z,6.53
2024-02-18T16:27:47.169Z,8.48
2024-02-18T16:31:29.000Z,8.00
2024-02-18T16:35:10.861Z,7.65
2024-02-18T16:38:53.237Z,9.05
2024-02-18T16:42:35.119Z,7.35
2024-02-18T16:46:17.207Z,6.43
2024-02-18T16:50:00.447Z,6.43
2024-02-18T16:53:44.560Z,6.18
2024-02-18T16:57:26.357Z,7.30
2024-02-18T17:01:08.726Z,6.43
2024-02-18T17:04:50.802Z,7.13
2024-02-18T17:08:32.632Z,8.00
2024-02-18T17:12:16.154Z,9.45
2024-02-18T17:15:58.050Z,6.38
2024-02-18T17:19:40.088Z,8.15
2024-02-18T17:23:22.065Z,6.95
2024-02-18T17:27:03.965Z,7.78
2024-02-18T17:30:45.934Z,6.43
2024-02-18T17:34:27.926Z,6.97
2024-02-18T17:38:09.774Z,8.52
2024-02-18T17:41:52.838Z,7.78
2024-02-18T17:45:35.108Z,6.82
2024-02-18T17:49:17.118Z,6.40
2024-02-18T17:52:59.044Z,11.57
2024-02-18T17:56:45.188Z,7.45
2024-02-18T18:00:28.289Z,11.02
2024-02-18T18:04:10.266Z,10.52
2024-02-18T18:07:55.703Z,8.00
2024-02-18T18:11:38.490Z,8.70
2024-02-18T18:15:23.245Z,9.68
2024-02-18T18:19:08.804Z,6.60
2024-02-18T18:22:53.216Z,7.03
2024-02-18T18:26:36.307Z,8.18
2024-02-18T18:30:18.258Z,6.20
2024-02-18T18:34:00.239Z,6.30
2024-02-18T18:37:42.104Z,4.85
2024-02-18T18:41:24.047Z,4.15
2024-02-18T18:45:08.617Z,7.00
2024-02-18T18:48:50.568Z,5.22
2024-02-18T18:52:33.455Z,5.63
2024-02-18T18:56:15.324Z,5.35
2024-02-18T18:59:57.210Z,7.30
2024-02-18T19:03:39.084Z,9.23
2024-02-18T19:07:25.694Z,9.00
2024-02-18T19:11:14.101Z,7.90
2024-02-18T19:14:55.953Z,6.28
2024-02-18T19:18:38.713Z,7.97
2024-02-18T19:22:20.968Z,8.93
2024-02-18T19:26:02.968Z,7.03
2024-02-18T19:29:45.105Z,8.80
2024-02-18T19:33:26.897Z,8.43
2024-02-18T19:37:09.189Z,11.05
2024-02-18T19:40:51.107Z,12.35
2024-02-18T19:44:33.293Z,11.65
2024-02-18T19:48:15.287Z,8.10
2024-02-18T19:51:57.628Z,11.30
2024-02-18T19:55:40.096Z,10.95
2024-02-18T19:59:24.973Z,12.30
2024-02-18T20:03:07.031Z,11.70
2024-02-18T20:06:49.579Z,11.18
2024-02-18T20:10:31.466Z,13.85
2024-02-18T20:14:13.253Z,14.25
2024-02-18T20:17:55.208Z,13.73
2024-02-18T20:21:37.297Z,15.60
2024-02-18T20:25:19.333Z,11.50
2024-02-18T20:29:01.562Z,16.45
2024-02-18T20:32:43.432Z,16.80
2024-02-18T20:36:25.286Z,11.82
2024-02-18T20:40:10.891Z,13.55
2024-02-18T20:43:52.965Z,12.52
2024-02-18T20:47:34.922Z,14.40
2024-02-18T20:51:18.814Z,14.60
2024-02-18T20:55:02.801Z,11.18
2024-02-18T20:58:46.272Z,11.77
2024-02-18T21:02:28.263Z,12.77
2024-02-18T21:06:10.150Z,12.75
2024-02-18T21:09:51.994Z,13.38
2024-02-18T21:13:34.656Z,11.23
2024-02-18T21:17:16.712Z,13.85
2024-02-18T21:20:58.565Z,11.57
2024-02-18T21:24:41.517Z,9.90
2024-02-18T21:28:23.751Z,13.60
2024-02-18T21:32:05.773Z,12.20
2024-02-18T21:35:48.493Z,10.88
2024-02-18T21:39:40.570Z,13.75
2024-02-18T21:43:29.397Z,11.07
2024-02-18T21:47:11.669Z,11.90
2024-02-18T21:50:53.610Z,9.93
2024-02-18T21:54:35.946Z,15.38
2024-02-18T21:58:17.953Z,15.23
2024-02-18T22:01:59.892Z,10.05
2024-02-18T22:05:41.915Z,10.45
2024-02-18T22:09:23.798Z,16.17
2024-02-18T22:13:05.677Z,13.98
2024-02-18T22:16:48.068Z,12.85
2024-02-18T22:20:29.953Z,13.27
2024-02-18T22:24:12.163Z,12.82
2024-02-18T22:27:54.031Z,12.40
2024-02-18T22:31:35.904Z,11.18
2024-02-18T22:35:18.093Z,10.05
2024-02-18T22:39:03.184Z,13.38
2024-02-18T22:42:45.181Z,18.60
2024-02-18T22:46:27.277Z,16.58
2024-02-18T22:50:09.453Z,22.55
2024-02-18T22:53:51.308Z,21.08
2024-02-18T22:57:33.151Z,23.83
2024-02-18T23:01:15.199Z,21.20
2024-02-18T23:04:57.164Z,21.80
2024-02-18T23:08:41.041Z,25.63
2024-02-18T23:12:23.482Z,23.60
2024-02-18T23:16:05.744Z,22.77
2024-02-18T23:19:47.713Z,22.00
2024-02-18T23:23:29.582Z,21.70
2024-02-18T23:27:11.461Z,17.38
2024-02-18T23:30:53.311Z,20.77
2024-02-18T23:34:35.466Z,20.35
2024-02-18T23:38:18.485Z,18.35
2024-02-18T23:42:00.443Z,18.23
2024-02-18T23:45:42.246Z,21.67
2024-02-18T23:49:24.348Z,20.52
2024-02-18T23:53:06.303Z,17.15
2024-02-18T23:56:50.280Z,16.02
